sensor_id;sensor_type;location;lat;lon;timestamp;P1;durP1;ratioP1;P2;durP2;ratioP2
21878;SDS011;27908;42.708;23.278;2023-04-08T00:02:15;32.80;;;15.70;;
21878;SDS011;27908;42.708;23.278;2023-04-08T00:04:40;29.70;;;16.25;;
21878;SDS011;27908;42.708;23.278;2023-04-08T00:07:06;31.73;;;15.77;;
21878;SDS011;27908;42.708;23.278;2023-04-08T00:09:31;31.58;;;15.85;;
21878;SDS011;27908;42.708;23.278;2023-04-08T00:11:57;27.23;;;14.63;;
21878;SDS011;27908;42.708;23.278;2023-04-08T00:14:23;30.70;;;15.43;;
21878;SDS011;27908;42.708;23.278;2023-04-08T00:16:48;28.17;;;15.30;;
21878;SDS011;27908;42.708;23.278;2023-04-08T00:19:13;29.00;;;15.30;;
21878;SDS011;27908;42.708;23.278;2023-04-08T00:21:39;26.57;;;14.73;;
21878;SDS011;27908;42.708;23.278;2023-04-08T00:24:04;27.80;;;14.87;;
21878;SDS011;27908;42.708;23.278;2023-04-08T00:26:31;28.20;;;14.60;;
21878;SDS011;27908;42.708;23.278;2023-04-08T00:28:56;31.17;;;15.15;;
21878;SDS011;27908;42.708;23.278;2023-04-08T00:31:22;30.17;;;15.27;;
21878;SDS011;27908;42.708;23.278;2023-04-08T00:33:47;27.87;;;13.90;;
21878;SDS011;27908;42.708;23.278;2023-04-08T00:36:13;27.38;;;14.38;;
21878;SDS011;27908;42.708;23.278;2023-04-08T00:38:38;31.03;;;15.47;;
21878;SDS011;27908;42.708;23.278;2023-04-08T00:41:03;34.07;;;15.63;;
21878;SDS011;27908;42.708;23.278;2023-04-08T00:43:29;32.97;;;15.93;;
21878;SDS011;27908;42.708;23.278;2023-04-08T00:45:55;29.40;;;15.98;;
21878;SDS011;27908;42.708;23.278;2023-04-08T00:48:20;34.70;;;17.17;;
21878;SDS011;27908;42.708;23.278;2023-04-08T00:50:46;35.30;;;18.33;;
21878;SDS011;27908;42.708;23.278;2023-04-08T00:53:13;40.03;;;19.50;;
21878;SDS011;27908;42.708;23.278;2023-04-08T00:55:42;37.40;;;19.10;;
21878;SDS011;27908;42.708;23.278;2023-04-08T00:58:07;42.17;;;20.95;;
21878;SDS011;27908;42.708;23.278;2023-04-08T01:00:33;39.33;;;20.60;;
21878;SDS011;27908;42.708;23.278;2023-04-08T01:03:11;36.47;;;19.55;;
21878;SDS011;27908;42.708;23.278;2023-04-08T01:08:20;35.90;;;18.37;;
21878;SDS011;27908;42.708;23.278;2023-04-08T01:10:48;37.85;;;17.98;;
21878;SDS011;27908;42.708;23.278;2023-04-08T01:13:18;38.40;;;18.92;;
21878;SDS011;27908;42.708;23.278;2023-04-08T01:15:47;35.58;;;18.30;;
21878;SDS011;27908;42.708;23.278;2023-04-08T01:18:13;36.80;;;17.97;;
21878;SDS011;27908;42.708;23.278;2023-04-08T01:20:41;40.45;;;18.50;;
21878;SDS011;27908;42.708;23.278;2023-04-08T01:23:11;34.22;;;19.45;;
21878;SDS011;27908;42.708;23.278;2023-04-08T01:25:38;34.05;;;16.98;;
21878;SDS011;27908;42.708;23.278;2023-04-08T01:28:08;37.42;;;18.40;;
21878;SDS011;27908;42.708;23.278;2023-04-08T01:30:39;36.93;;;17.37;;
21878;SDS011;27908;42.708;23.278;2023-04-08T01:33:06;40.50;;;18.13;;
21878;SDS011;27908;42.708;23.278;2023-04-08T01:35:34;35.10;;;18.88;;
21878;SDS011;27908;42.708;23.278;2023-04-08T01:38:00;37.13;;;18.47;;
21878;SDS011;27908;42.708;23.278;2023-04-08T01:40:27;35.10;;;17.87;;
21878;SDS011;27908;42.708;23.278;2023-04-08T01:42:54;35.03;;;17.75;;
21878;SDS011;27908;42.708;23.278;2023-04-08T01:45:22;33.13;;;17.27;;
21878;SDS011;27908;42.708;23.278;2023-04-08T01:47:48;35.75;;;17.45;;
21878;SDS011;27908;42.708;23.278;2023-04-08T01:50:14;33.23;;;16.33;;
21878;SDS011;27908;42.708;23.278;2023-04-08T01:52:43;31.92;;;16.20;;
21878;SDS011;27908;42.708;23.278;2023-04-08T01:55:10;34.65;;;16.77;;
21878;SDS011;27908;42.708;23.278;2023-04-08T01:57:36;34.00;;;16.47;;
21878;SDS011;27908;42.708;23.278;2023-04-08T02:00:07;34.47;;;17.48;;
21878;SDS011;27908;42.708;23.278;2023-04-08T02:02:35;36.17;;;17.90;;
21878;SDS011;27908;42.708;23.278;2023-04-08T02:05:00;34.53;;;17.52;;
21878;SDS011;27908;42.708;23.278;2023-04-08T02:07:26;30.17;;;17.10;;
21878;SDS011;27908;42.708;23.278;2023-04-08T02:09:51;32.97;;;16.40;;
21878;SDS011;27908;42.708;23.278;2023-04-08T02:12:17;33.70;;;16.83;;
21878;SDS011;27908;42.708;23.278;2023-04-08T02:14:43;31.45;;;16.33;;
21878;SDS011;27908;42.708;23.278;2023-04-08T02:17:10;34.13;;;17.43;;
21878;SDS011;27908;42.708;23.278;2023-04-08T02:19:43;32.30;;;16.58;;
21878;SDS011;27908;42.708;23.278;2023-04-08T02:22:24;35.88;;;17.80;;
21878;SDS011;27908;42.708;23.278;2023-04-08T02:24:58;35.88;;;18.05;;
21878;SDS011;27908;42.708;23.278;2023-04-08T02:27:25;35.45;;;17.98;;
21878;SDS011;27908;42.708;23.278;2023-04-08T02:29:51;32.93;;;16.67;;
21878;SDS011;27908;42.708;23.278;2023-04-08T02:32:19;32.58;;;16.65;;
21878;SDS011;27908;42.708;23.278;2023-04-08T02:34:46;36.42;;;17.25;;
21878;SDS011;27908;42.708;23.278;2023-04-08T02:37:12;35.80;;;18.40;;
21878;SDS011;27908;42.708;23.278;2023-04-08T02:39:38;35.73;;;17.83;;
21878;SDS011;27908;42.708;23.278;2023-04-08T02:42:03;34.17;;;17.07;;
21878;SDS011;27908;42.708;23.278;2023-04-08T02:44:29;30.23;;;15.52;;
21878;SDS011;27908;42.708;23.278;2023-04-08T02:46:55;35.83;;;16.50;;
21878;SDS011;27908;42.708;23.278;2023-04-08T02:49:20;30.73;;;16.70;;
21878;SDS011;27908;42.708;23.278;2023-04-08T02:51:46;30.53;;;16.23;;
21878;SDS011;27908;42.708;23.278;2023-04-08T02:54:12;32.50;;;16.77;;
21878;SDS011;27908;42.708;23.278;2023-04-08T02:56:38;37.30;;;17.87;;
21878;SDS011;27908;42.708;23.278;2023-04-08T02:59:03;32.47;;;18.57;;
21878;SDS011;27908;42.708;23.278;2023-04-08T03:01:29;37.03;;;18.63;;
21878;SDS011;27908;42.708;23.278;2023-04-08T03:03:55;32.58;;;18.08;;
21878;SDS011;27908;42.708;23.278;2023-04-08T03:06:20;34.63;;;18.53;;
21878;SDS011;27908;42.708;23.278;2023-04-08T03:08:46;31.27;;;17.77;;
21878;SDS011;27908;42.708;23.278;2023-04-08T03:11:11;33.83;;;17.83;;
21878;SDS011;27908;42.708;23.278;2023-04-08T03:13:36;36.33;;;18.47;;
21878;SDS011;27908;42.708;23.278;2023-04-08T03:16:02;34.13;;;19.03;;
21878;SDS011;27908;42.708;23.278;2023-04-08T03:18:27;35.20;;;18.75;;
21878;SDS011;27908;42.708;23.278;2023-04-08T03:20:53;38.90;;;19.47;;
21878;SDS011;27908;42.708;23.278;2023-04-08T03:23:18;37.67;;;19.63;;
21878;SDS011;27908;42.708;23.278;2023-04-08T03:25:43;37.47;;;19.67;;
21878;SDS011;27908;42.708;23.278;2023-04-08T03:28:09;36.33;;;19.13;;
21878;SDS011;27908;42.708;23.278;2023-04-08T03:30:34;35.80;;;18.90;;
21878;SDS011;27908;42.708;23.278;2023-04-08T03:33:00;35.23;;;18.77;;
21878;SDS011;27908;42.708;23.278;2023-04-08T03:35:27;38.97;;;20.85;;
21878;SDS011;27908;42.708;23.278;2023-04-08T03:37:53;33.90;;;17.93;;
21878;SDS011;27908;42.708;23.278;2023-04-08T03:40:19;38.33;;;18.63;;
21878;SDS011;27908;42.708;23.278;2023-04-08T03:42:45;35.33;;;18.80;;
21878;SDS011;27908;42.708;23.278;2023-04-08T03:45:10;35.78;;;18.27;;
21878;SDS011;27908;42.708;23.278;2023-04-08T03:47:36;35.10;;;19.07;;
21878;SDS011;27908;42.708;23.278;2023-04-08T03:50:01;33.00;;;18.93;;
21878;SDS011;27908;42.708;23.278;2023-04-08T03:52:27;34.70;;;18.10;;
21878;SDS011;27908;42.708;23.278;2023-04-08T03:54:52;36.07;;;18.63;;
21878;SDS011;27908;42.708;23.278;2023-04-08T03:57:18;35.63;;;17.70;;
21878;SDS011;27908;42.708;23.278;2023-04-08T03:59:43;33.45;;;17.65;;
21878;SDS011;27908;42.708;23.278;2023-04-08T04:02:08;31.80;;;16.43;;
21878;SDS011;27908;42.708;23.278;2023-04-08T04:04:34;32.13;;;16.77;;
21878;SDS011;27908;42.708;23.278;2023-04-08T04:07:01;32.30;;;17.60;;
21878;SDS011;27908;42.708;23.278;2023-04-08T04:09:26;34.57;;;18.03;;
21878;SDS011;27908;42.708;23.278;2023-04-08T04:11:52;38.85;;;19.05;;
21878;SDS011;27908;42.708;23.278;2023-04-08T04:14:17;38.63;;;17.77;;
21878;SDS011;27908;42.708;23.278;2023-04-08T04:16:42;33.13;;;17.73;;
21878;SDS011;27908;42.708;23.278;2023-04-08T04:19:08;33.43;;;17.73;;
21878;SDS011;27908;42.708;23.278;2023-04-08T04:21:33;32.63;;;16.70;;
21878;SDS011;27908;42.708;23.278;2023-04-08T04:23:59;32.87;;;17.90;;
21878;SDS011;27908;42.708;23.278;2023-04-08T04:26:24;31.80;;;17.33;;
21878;SDS011;27908;42.708;23.278;2023-04-08T04:28:50;33.77;;;18.40;;
21878;SDS011;27908;42.708;23.278;2023-04-08T04:31:19;32.35;;;17.45;;
21878;SDS011;27908;42.708;23.278;2023-04-08T04:33:45;34.45;;;19.05;;
21878;SDS011;27908;42.708;23.278;2023-04-08T04:36:11;33.67;;;17.17;;
21878;SDS011;27908;42.708;23.278;2023-04-08T04:38:37;29.13;;;16.67;;
21878;SDS011;27908;42.708;23.278;2023-04-08T04:41:03;34.90;;;16.97;;
21878;SDS011;27908;42.708;23.278;2023-04-08T04:43:28;33.27;;;16.77;;
21878;SDS011;27908;42.708;23.278;2023-04-08T04:45:54;34.70;;;17.92;;
21878;SDS011;27908;42.708;23.278;2023-04-08T04:48:20;37.08;;;18.63;;
21878;SDS011;27908;42.708;23.278;2023-04-08T04:50:53;35.63;;;18.07;;
21878;SDS011;27908;42.708;23.278;2023-04-08T04:53:22;37.35;;;19.20;;
21878;SDS011;27908;42.708;23.278;2023-04-08T04:55:47;40.97;;;19.50;;
21878;SDS011;27908;42.708;23.278;2023-04-08T04:58:13;39.53;;;17.88;;
21878;SDS011;27908;42.708;23.278;2023-04-08T05:00:39;38.13;;;19.03;;
21878;SDS011;27908;42.708;23.278;2023-04-08T05:03:05;39.72;;;19.80;;
21878;SDS011;27908;42.708;23.278;2023-04-08T05:05:30;40.70;;;19.17;;
21878;SDS011;27908;42.708;23.278;2023-04-08T05:07:56;39.93;;;20.00;;
21878;SDS011;27908;42.708;23.278;2023-04-08T05:10:21;42.00;;;19.77;;
21878;SDS011;27908;42.708;23.278;2023-04-08T05:12:46;38.47;;;19.65;;
21878;SDS011;27908;42.708;23.278;2023-04-08T05:15:12;38.33;;;19.27;;
21878;SDS011;27908;42.708;23.278;2023-04-08T05:17:37;37.03;;;19.40;;
21878;SDS011;27908;42.708;23.278;2023-04-08T05:20:03;37.93;;;18.23;;
21878;SDS011;27908;42.708;23.278;2023-04-08T05:22:29;34.88;;;17.67;;
21878;SDS011;27908;42.708;23.278;2023-04-08T05:24:54;38.30;;;19.17;;
21878;SDS011;27908;42.708;23.278;2023-04-08T05:27:20;38.08;;;17.83;;
21878;SDS011;27908;42.708;23.278;2023-04-08T05:29:45;36.77;;;18.27;;
21878;SDS011;27908;42.708;23.278;2023-04-08T05:32:11;33.92;;;17.70;;
21878;SDS011;27908;42.708;23.278;2023-04-08T05:34:37;35.53;;;17.53;;
21878;SDS011;27908;42.708;23.278;2023-04-08T05:37:02;38.23;;;19.67;;
21878;SDS011;27908;42.708;23.278;2023-04-08T05:39:28;31.05;;;16.10;;
21878;SDS011;27908;42.708;23.278;2023-04-08T05:41:53;31.23;;;17.10;;
21878;SDS011;27908;42.708;23.278;2023-04-08T05:44:19;34.87;;;17.27;;
21878;SDS011;27908;42.708;23.278;2023-04-08T05:46:44;37.80;;;17.87;;
21878;SDS011;27908;42.708;23.278;2023-04-08T05:49:10;31.23;;;16.83;;
21878;SDS011;27908;42.708;23.278;2023-04-08T05:51:36;33.03;;;17.67;;
21878;SDS011;27908;42.708;23.278;2023-04-08T05:54:01;33.60;;;17.37;;
21878;SDS011;27908;42.708;23.278;2023-04-08T05:56:27;32.80;;;16.70;;
21878;SDS011;27908;42.708;23.278;2023-04-08T05:58:52;33.27;;;16.73;;
21878;SDS011;27908;42.708;23.278;2023-04-08T06:01:17;35.00;;;17.37;;
21878;SDS011;27908;42.708;23.278;2023-04-08T06:03:43;33.80;;;17.93;;
21878;SDS011;27908;42.708;23.278;2023-04-08T06:06:11;33.70;;;17.47;;
21878;SDS011;27908;42.708;23.278;2023-04-08T06:08:36;30.63;;;17.30;;
21878;SDS011;27908;42.708;23.278;2023-04-08T06:11:02;41.33;;;20.53;;
21878;SDS011;27908;42.708;23.278;2023-04-08T06:13:30;30.80;;;17.52;;
21878;SDS011;27908;42.708;23.278;2023-04-08T06:15:56;33.40;;;18.40;;
21878;SDS011;27908;42.708;23.278;2023-04-08T06:18:21;35.40;;;18.05;;
21878;SDS011;27908;42.708;23.278;2023-04-08T06:20:47;33.60;;;17.43;;
21878;SDS011;27908;42.708;23.278;2023-04-08T06:23:12;37.47;;;19.53;;
21878;SDS011;27908;42.708;23.278;2023-04-08T06:25:38;37.88;;;21.10;;
21878;SDS011;27908;42.708;23.278;2023-04-08T06:28:03;32.63;;;17.80;;
21878;SDS011;27908;42.708;23.278;2023-04-08T06:30:29;35.10;;;18.10;;
21878;SDS011;27908;42.708;23.278;2023-04-08T06:32:54;38.70;;;20.40;;
21878;SDS011;27908;42.708;23.278;2023-04-08T06:35:20;31.43;;;16.27;;
21878;SDS011;27908;42.708;23.278;2023-04-08T06:37:45;32.00;;;15.77;;
21878;SDS011;27908;42.708;23.278;2023-04-08T06:40:11;28.53;;;14.93;;
21878;SDS011;27908;42.708;23.278;2023-04-08T06:42:36;29.13;;;14.60;;
21878;SDS011;27908;42.708;23.278;2023-04-08T06:45:07;26.07;;;14.50;;
21878;SDS011;27908;42.708;23.278;2023-04-08T06:47:32;26.42;;;13.07;;
21878;SDS011;27908;42.708;23.278;2023-04-08T06:49:58;24.10;;;12.13;;
21878;SDS011;27908;42.708;23.278;2023-04-08T06:52:23;21.27;;;11.83;;
21878;SDS011;27908;42.708;23.278;2023-04-08T06:54:49;19.77;;;11.40;;
21878;SDS011;27908;42.708;23.278;2023-04-08T06:57:14;22.50;;;12.23;;
21878;SDS011;27908;42.708;23.278;2023-04-08T06:59:40;21.00;;;11.23;;
21878;SDS011;27908;42.708;23.278;2023-04-08T07:02:05;21.05;;;12.05;;
21878;SDS011;27908;42.708;23.278;2023-04-08T07:04:31;37.57;;;19.97;;
21878;SDS011;27908;42.708;23.278;2023-04-08T07:06:56;23.23;;;12.50;;
21878;SDS011;27908;42.708;23.278;2023-04-08T07:09:21;24.23;;;13.17;;
21878;SDS011;27908;42.708;23.278;2023-04-08T07:11:47;25.93;;;12.97;;
21878;SDS011;27908;42.708;23.278;2023-04-08T07:14:12;23.53;;;13.30;;
21878;SDS011;27908;42.708;23.278;2023-04-08T07:16:38;62.10;;;33.40;;
21878;SDS011;27908;42.708;23.278;2023-04-08T07:19:03;31.53;;;14.43;;
21878;SDS011;27908;42.708;23.278;2023-04-08T07:21:29;28.77;;;13.47;;
21878;SDS011;27908;42.708;23.278;2023-04-08T07:23:55;23.70;;;13.05;;
21878;SDS011;27908;42.708;23.278;2023-04-08T07:26:21;25.93;;;13.00;;
21878;SDS011;27908;42.708;23.278;2023-04-08T07:28:46;26.15;;;12.75;;
21878;SDS011;27908;42.708;23.278;2023-04-08T07:31:13;27.13;;;13.10;;
21878;SDS011;27908;42.708;23.278;2023-04-08T07:33:40;24.45;;;12.88;;
21878;SDS011;27908;42.708;23.278;2023-04-08T07:36:07;21.80;;;11.23;;
21878;SDS011;27908;42.708;23.278;2023-04-08T07:38:34;24.30;;;13.50;;
21878;SDS011;27908;42.708;23.278;2023-04-08T07:40:59;24.70;;;12.45;;
21878;SDS011;27908;42.708;23.278;2023-04-08T07:43:25;22.50;;;11.97;;
21878;SDS011;27908;42.708;23.278;2023-04-08T07:45:51;27.25;;;13.45;;
21878;SDS011;27908;42.708;23.278;2023-04-08T07:48:17;23.63;;;12.93;;
21878;SDS011;27908;42.708;23.278;2023-04-08T07:50:42;25.80;;;12.60;;
21878;SDS011;27908;42.708;23.278;2023-04-08T07:53:09;30.98;;;14.63;;
21878;SDS011;27908;42.708;23.278;2023-04-08T07:55:35;22.93;;;12.33;;
21878;SDS011;27908;42.708;23.278;2023-04-08T07:58:00;21.33;;;12.32;;
21878;SDS011;27908;42.708;23.278;2023-04-08T08:00:26;36.10;;;18.10;;
21878;SDS011;27908;42.708;23.278;2023-04-08T08:02:54;23.60;;;12.68;;
21878;SDS011;27908;42.708;23.278;2023-04-08T08:05:20;23.35;;;13.05;;
21878;SDS011;27908;42.708;23.278;2023-04-08T08:07:45;23.60;;;12.63;;
21878;SDS011;27908;42.708;23.278;2023-04-08T08:10:11;21.57;;;11.87;;
21878;SDS011;27908;42.708;23.278;2023-04-08T08:12:36;23.02;;;12.38;;
21878;SDS011;27908;42.708;23.278;2023-04-08T08:15:02;20.33;;;11.27;;
21878;SDS011;27908;42.708;23.278;2023-04-08T08:17:27;21.95;;;11.55;;
21878;SDS011;27908;42.708;23.278;2023-04-08T08:19:55;20.92;;;11.68;;
21878;SDS011;27908;42.708;23.278;2023-04-08T08:22:21;21.07;;;11.60;;
21878;SDS011;27908;42.708;23.278;2023-04-08T08:24:46;22.10;;;12.30;;
21878;SDS011;27908;42.708;23.278;2023-04-08T08:27:12;24.27;;;12.13;;
21878;SDS011;27908;42.708;23.278;2023-04-08T08:29:37;20.43;;;10.87;;
21878;SDS011;27908;42.708;23.278;2023-04-08T08:32:03;19.08;;;10.82;;
21878;SDS011;27908;42.708;23.278;2023-04-08T08:34:29;22.37;;;12.67;;
21878;SDS011;27908;42.708;23.278;2023-04-08T08:36:54;24.08;;;13.57;;
21878;SDS011;27908;42.708;23.278;2023-04-08T08:39:20;23.53;;;12.23;;
21878;SDS011;27908;42.708;23.278;2023-04-08T08:41:45;19.73;;;11.05;;
21878;SDS011;27908;42.708;23.278;2023-04-08T08:44:11;22.57;;;11.40;;
21878;SDS011;27908;42.708;23.278;2023-04-08T08:46:41;20.13;;;11.35;;
21878;SDS011;27908;42.708;23.278;2023-04-08T08:49:08;25.02;;;12.55;;
21878;SDS011;27908;42.708;23.278;2023-04-08T08:51:33;20.60;;;11.73;;
21878;SDS011;27908;42.708;23.278;2023-04-08T08:54:03;21.05;;;11.23;;
21878;SDS011;27908;42.708;23.278;2023-04-08T08:56:28;20.98;;;11.85;;
21878;SDS011;27908;42.708;23.278;2023-04-08T08:58:54;20.23;;;11.17;;
21878;SDS011;27908;42.708;23.278;2023-04-08T09:01:40;21.93;;;11.53;;
21878;SDS011;27908;42.708;23.278;2023-04-08T09:04:15;20.73;;;11.53;;
21878;SDS011;27908;42.708;23.278;2023-04-08T09:06:47;22.70;;;12.07;;
21878;SDS011;27908;42.708;23.278;2023-04-08T09:09:15;24.02;;;12.63;;
21878;SDS011;27908;42.708;23.278;2023-04-08T09:11:44;23.60;;;12.00;;
21878;SDS011;27908;42.708;23.278;2023-04-08T09:16:49;21.73;;;10.50;;
21878;SDS011;27908;42.708;23.278;2023-04-08T09:19:15;21.25;;;10.80;;
21878;SDS011;27908;42.708;23.278;2023-04-08T09:21:41;23.83;;;11.23;;
21878;SDS011;27908;42.708;23.278;2023-04-08T09:24:07;17.47;;;9.80;;
21878;SDS011;27908;42.708;23.278;2023-04-08T09:26:34;21.60;;;10.80;;
21878;SDS011;27908;42.708;23.278;2023-04-08T09:29:05;21.05;;;12.63;;
21878;SDS011;27908;42.708;23.278;2023-04-08T09:31:35;20.55;;;11.52;;
21878;SDS011;27908;42.708;23.278;2023-04-08T09:34:09;21.85;;;11.63;;
21878;SDS011;27908;42.708;23.278;2023-04-08T09:36:34;26.47;;;12.03;;
21878;SDS011;27908;42.708;23.278;2023-04-08T09:39:00;23.38;;;11.50;;
21878;SDS011;27908;42.708;23.278;2023-04-08T09:41:26;24.47;;;13.00;;
21878;SDS011;27908;42.708;23.278;2023-04-08T09:43:53;23.20;;;11.40;;
21878;SDS011;27908;42.708;23.278;2023-04-08T09:46:26;24.55;;;11.82;;
21878;SDS011;27908;42.708;23.278;2023-04-08T09:49:00;19.37;;;9.87;;
21878;SDS011;27908;42.708;23.278;2023-04-08T09:51:31;19.88;;;10.52;;
21878;SDS011;27908;42.708;23.278;2023-04-08T09:54:02;21.15;;;11.07;;
21878;SDS011;27908;42.708;23.278;2023-04-08T09:56:33;18.23;;;10.07;;
21878;SDS011;27908;42.708;23.278;2023-04-08T09:59:09;20.20;;;9.05;;
21878;SDS011;27908;42.708;23.278;2023-04-08T10:01:41;21.40;;;10.00;;
21878;SDS011;27908;42.708;23.278;2023-04-08T10:04:13;19.23;;;10.27;;
21878;SDS011;27908;42.708;23.278;2023-04-08T10:06:41;17.58;;;9.13;;
21878;SDS011;27908;42.708;23.278;2023-04-08T10:09:06;18.50;;;9.87;;
21878;SDS011;27908;42.708;23.278;2023-04-08T10:11:32;17.33;;;8.40;;
21878;SDS011;27908;42.708;23.278;2023-04-08T10:14:00;19.92;;;10.82;;
21878;SDS011;27908;42.708;23.278;2023-04-08T10:16:26;19.90;;;10.07;;
21878;SDS011;27908;42.708;23.278;2023-04-08T10:18:54;18.13;;;8.90;;
21878;SDS011;27908;42.708;23.278;2023-04-08T10:24:15;22.25;;;10.93;;
21878;SDS011;27908;42.708;23.278;2023-04-08T10:26:45;18.85;;;9.05;;
21878;SDS011;27908;42.708;23.278;2023-04-08T10:31:45;21.30;;;10.33;;
21878;SDS011;27908;42.708;23.278;2023-04-08T10:34:21;19.50;;;9.90;;
21878;SDS011;27908;42.708;23.278;2023-04-08T10:36:49;23.77;;;11.18;;
21878;SDS011;27908;42.708;23.278;2023-04-08T10:39:15;23.10;;;12.60;;
21878;SDS011;27908;42.708;23.278;2023-04-08T10:41:49;20.55;;;10.57;;
21878;SDS011;27908;42.708;23.278;2023-04-08T10:44:19;21.00;;;9.18;;
21878;SDS011;27908;42.708;23.278;2023-04-08T10:46:45;22.55;;;11.18;;
21878;SDS011;27908;42.708;23.278;2023-04-08T10:49:12;17.50;;;9.60;;
21878;SDS011;27908;42.708;23.278;2023-04-08T10:51:39;20.02;;;10.52;;
21878;SDS011;27908;42.708;23.278;2023-04-08T10:54:06;21.40;;;10.85;;
21878;SDS011;27908;42.708;23.278;2023-04-08T10:56:34;19.58;;;9.73;;
21878;SDS011;27908;42.708;23.278;2023-04-08T10:59:00;20.17;;;9.25;;
21878;SDS011;27908;42.708;23.278;2023-04-08T11:01:25;18.03;;;9.30;;
21878;SDS011;27908;42.708;23.278;2023-04-08T11:03:51;21.23;;;10.25;;
21878;SDS011;27908;42.708;23.278;2023-04-08T11:06:17;19.00;;;10.57;;
21878;SDS011;27908;42.708;23.278;2023-04-08T11:08:43;17.40;;;9.05;;
21878;SDS011;27908;42.708;23.278;2023-04-08T11:11:09;16.55;;;9.30;;
21878;SDS011;27908;42.708;23.278;2023-04-08T11:13:40;18.13;;;8.30;;
21878;SDS011;27908;42.708;23.278;2023-04-08T11:16:07;18.80;;;9.83;;
21878;SDS011;27908;42.708;23.278;2023-04-08T11:18:33;17.83;;;9.15;;
21878;SDS011;27908;42.708;23.278;2023-04-08T11:20:59;18.70;;;10.13;;
21878;SDS011;27908;42.708;23.278;2023-04-08T11:23:25;16.65;;;9.43;;
21878;SDS011;27908;42.708;23.278;2023-04-08T11:25:51;18.00;;;8.93;;
21878;SDS011;27908;42.708;23.278;2023-04-08T11:28:17;22.17;;;9.90;;
21878;SDS011;27908;42.708;23.278;2023-04-08T11:30:43;18.73;;;10.20;;
21878;SDS011;27908;42.708;23.278;2023-04-08T11:33:09;20.92;;;9.98;;
21878;SDS011;27908;42.708;23.278;2023-04-08T11:35:41;18.42;;;7.95;;
21878;SDS011;27908;42.708;23.278;2023-04-08T11:38:08;17.40;;;8.60;;
21878;SDS011;27908;42.708;23.278;2023-04-08T11:40:35;15.48;;;8.07;;
21878;SDS011;27908;42.708;23.278;2023-04-08T11:43:10;14.90;;;7.97;;
21878;SDS011;27908;42.708;23.278;2023-04-08T11:45:37;16.93;;;8.80;;
21878;SDS011;27908;42.708;23.278;2023-04-08T11:48:07;16.58;;;7.82;;
21878;SDS011;27908;42.708;23.278;2023-04-08T11:50:36;14.73;;;8.43;;
21878;SDS011;27908;42.708;23.278;2023-04-08T11:53:02;14.57;;;7.53;;
21878;SDS011;27908;42.708;23.278;2023-04-08T11:55:31;19.88;;;10.18;;
21878;SDS011;27908;42.708;23.278;2023-04-08T11:58:04;14.67;;;7.70;;
21878;SDS011;27908;42.708;23.278;2023-04-08T12:00:31;17.33;;;8.50;;
21878;SDS011;27908;42.708;23.278;2023-04-08T12:02:57;17.10;;;7.60;;
21878;SDS011;27908;42.708;23.278;2023-04-08T12:05:22;14.83;;;8.00;;
21878;SDS011;27908;42.708;23.278;2023-04-08T12:07:47;15.70;;;7.47;;
21878;SDS011;27908;42.708;23.278;2023-04-08T12:10:13;12.75;;;7.07;;
21878;SDS011;27908;42.708;23.278;2023-04-08T12:12:38;16.50;;;7.53;;
21878;SDS011;27908;42.708;23.278;2023-04-08T12:15:05;15.30;;;8.15;;
21878;SDS011;27908;42.708;23.278;2023-04-08T12:17:32;14.83;;;8.00;;
21878;SDS011;27908;42.708;23.278;2023-04-08T12:19:58;14.68;;;7.15;;
21878;SDS011;27908;42.708;23.278;2023-04-08T12:22:23;17.23;;;7.90;;
21878;SDS011;27908;42.708;23.278;2023-04-08T12:24:49;17.58;;;8.93;;
21878;SDS011;27908;42.708;23.278;2023-04-08T12:27:28;16.95;;;8.63;;
21878;SDS011;27908;42.708;23.278;2023-04-08T12:29:54;14.55;;;7.07;;
21878;SDS011;27908;42.708;23.278;2023-04-08T12:32:20;16.47;;;7.93;;
21878;SDS011;27908;42.708;23.278;2023-04-08T12:34:46;15.10;;;7.85;;
21878;SDS011;27908;42.708;23.278;2023-04-08T12:37:11;15.10;;;8.17;;
21878;SDS011;27908;42.708;23.278;2023-04-08T12:39:37;13.30;;;7.10;;
21878;SDS011;27908;42.708;23.278;2023-04-08T12:42:03;16.70;;;7.47;;
21878;SDS011;27908;42.708;23.278;2023-04-08T12:44:28;14.55;;;7.07;;
21878;SDS011;27908;42.708;23.278;2023-04-08T12:46:54;13.23;;;7.57;;
21878;SDS011;27908;42.708;23.278;2023-04-08T12:49:20;13.93;;;7.63;;
21878;SDS011;27908;42.708;23.278;2023-04-08T12:51:46;15.60;;;8.47;;
21878;SDS011;27908;42.708;23.278;2023-04-08T12:54:11;18.17;;;7.83;;
21878;SDS011;27908;42.708;23.278;2023-04-08T12:56:37;13.52;;;7.90;;
21878;SDS011;27908;42.708;23.278;2023-04-08T12:59:03;14.85;;;7.22;;
21878;SDS011;27908;42.708;23.278;2023-04-08T13:01:28;20.17;;;11.13;;
21878;SDS011;27908;42.708;23.278;2023-04-08T13:03:54;19.60;;;7.30;;
21878;SDS011;27908;42.708;23.278;2023-04-08T13:06:20;13.60;;;7.47;;
21878;SDS011;27908;42.708;23.278;2023-04-08T13:08:45;20.85;;;10.68;;
21878;SDS011;27908;42.708;23.278;2023-04-08T13:11:11;20.47;;;11.20;;
21878;SDS011;27908;42.708;23.278;2023-04-08T13:13:36;16.33;;;7.40;;
21878;SDS011;27908;42.708;23.278;2023-04-08T13:16:02;39.33;;;21.73;;
21878;SDS011;27908;42.708;23.278;2023-04-08T13:18:28;12.77;;;6.45;;
21878;SDS011;27908;42.708;23.278;2023-04-08T13:20:53;14.60;;;7.30;;
21878;SDS011;27908;42.708;23.278;2023-04-08T13:23:19;14.50;;;8.02;;
21878;SDS011;27908;42.708;23.278;2023-04-08T13:25:45;12.32;;;6.45;;
21878;SDS011;27908;42.708;23.278;2023-04-08T13:28:10;11.90;;;6.47;;
21878;SDS011;27908;42.708;23.278;2023-04-08T13:30:36;14.53;;;7.00;;
21878;SDS011;27908;42.708;23.278;2023-04-08T13:33:02;12.27;;;7.10;;
21878;SDS011;27908;42.708;23.278;2023-04-08T13:35:27;11.83;;;7.20;;
21878;SDS011;27908;42.708;23.278;2023-04-08T13:37:53;12.27;;;6.60;;
21878;SDS011;27908;42.708;23.278;2023-04-08T13:40:18;13.17;;;7.13;;
21878;SDS011;27908;42.708;23.278;2023-04-08T13:42:44;14.57;;;7.03;;
21878;SDS011;27908;42.708;23.278;2023-04-08T13:45:09;11.90;;;6.77;;
21878;SDS011;27908;42.708;23.278;2023-04-08T13:47:35;14.37;;;8.17;;
21878;SDS011;27908;42.708;23.278;2023-04-08T13:50:01;17.37;;;9.23;;
21878;SDS011;27908;42.708;23.278;2023-04-08T13:52:26;14.93;;;8.20;;
21878;SDS011;27908;42.708;23.278;2023-04-08T13:54:51;11.30;;;6.33;;
21878;SDS011;27908;42.708;23.278;2023-04-08T13:57:17;14.97;;;6.87;;
21878;SDS011;27908;42.708;23.278;2023-04-08T13:59:42;13.00;;;7.03;;
21878;SDS011;27908;42.708;23.278;2023-04-08T14:02:08;14.77;;;8.63;;
21878;SDS011;27908;42.708;23.278;2023-04-08T14:04:33;12.43;;;7.13;;
21878;SDS011;27908;42.708;23.278;2023-04-08T14:06:58;13.70;;;7.90;;
21878;SDS011;27908;42.708;23.278;2023-04-08T14:09:24;14.10;;;8.07;;
21878;SDS011;27908;42.708;23.278;2023-04-08T14:11:50;13.27;;;7.80;;
21878;SDS011;27908;42.708;23.278;2023-04-08T14:14:15;12.93;;;7.03;;
21878;SDS011;27908;42.708;23.278;2023-04-08T14:16:41;14.18;;;6.43;;
21878;SDS011;27908;42.708;23.278;2023-04-08T14:19:07;12.33;;;7.00;;